Data for 04/23/2014

Time Sea-Level Adjusted Pressure Absolute Pressure Temperature Relative Humidity Dew Point   
(mb) (inHg) (mb) (inHg) (C) (F) (%) (C) (F)
00:05 1007 29.74 836 24.69 3.1 37.7 88 1.4 34.6
00:10 1007 29.74 836 24.69 2.8 37 89 1.1 34
00:15 1007 29.74 836 24.69 2.4 36.4 89 0.9 33.6
00:20 1007 29.74 836 24.69 2 35.6 91 0.6 33.1
00:25 1007 29.74 836 24.69 1.6 34.9 90 0.2 32.3
00:30 1007 29.74 836 24.69 1.5 34.6 90 0 32
00:35 1007 29.74 836 24.69 1.6 34.8 90 0.1 32.2
00:40 1007 29.74 836 24.69 1.6 34.9 90 0.2 32.3
00:45 1007 29.74 836 24.69 1.7 35 91 0.3 32.6
00:50 1007 29.74 836 24.69 1.8 35.3 90 0.4 32.7
00:55 1007 29.74 836 24.69 1.9 35.4 89 0.3 32.5
01:00 1007 29.74 836 24.69 1.9 35.5 89 0.4 32.7
01:05 1007 29.74 836 24.69 1.9 35.5 90 0.4 32.7
01:10 1007 29.74 836 24.69 1.9 35.4 89 0.3 32.5
01:15 1007 29.74 836 24.69 1.8 35.2 90 0.2 32.4
01:20 1007 29.74 836 24.69 1.7 35 90 0.2 32.4
01:25 1007 29.74 836 24.69 1.6 34.9 89 0 32.1
01:30 1007 29.74 836 24.69 1.8 35.3 87 -0.1 31.9
01:35 1007 29.74 836 24.69 1.9 35.5 88 0.1 32.3
01:40 1007 29.74 836 24.69 1.9 35.5 88 0.2 32.3
01:45 1007 29.74 836 24.69 2 35.6 88 0.2 32.3
01:50 1007 29.74 836 24.69 2 35.5 84 -0.4 31.2
01:55 1007 29.74 836 24.69 1.9 35.4 89 0.2 32.4
02:00 1007 29.74 836 24.69 1.5 34.6 90 -0 31.9
02:05 1007 29.74 836 24.69 1.4 34.5 87 -0.5 31.1
02:10 1007 29.74 836 24.69 1.5 34.7 84 -0.9 30.4
02:15 1007 29.74 836 24.69 1.6 34.8 79 -1.7 29
02:20 1007 29.74 836 24.69 1.6 34.9 74 -2.5 27.5
02:25 1007 29.74 836 24.69 1.5 34.7 72 -3 26.6
02:30 1007 29.74 836 24.69 1.5 34.7 72 -3 26.6
02:35 1007 29.74 837 24.72 1.4 34.6 76 -2.4 27.7
02:40 1008 29.77 837 24.72 1.4 34.5 79 -1.8 28.7
02:45 1008 29.77 837 24.72 1.3 34.3 84 -1.2 29.9
02:50 1008 29.77 837 24.72 1.2 34.1 84 -1.2 29.9
02:55 1008 29.77 837 24.72 1 33.9 74 -3.2 26.3
03:00 1008 29.77 837 24.72 1 33.7 74 -3.2 26.2
03:05 1008 29.77 837 24.72 0.8 33.4 77 -2.8 27
03:10 1008 29.77 838 24.75 0.5 33 79 -2.6 27.3
03:15 1008 29.77 838 24.75 0.4 32.7 81 -2.6 27.4
03:20 1009 29.8 838 24.75 0.3 32.6 82 -2.3 27.8
03:25 1009 29.8 838 24.75 0.3 32.5 82 -2.4 27.8
03:30 1009 29.8 838 24.75 0.3 32.5 83 -2.2 28
03:35 1009 29.8 838 24.75 0.2 32.4 85 -2 28.5
03:40 1009 29.8 838 24.75 0.1 32.2 85 -2.1 28.3
03:45 1009 29.8 838 24.75 -0 32 86 -2.1 28.2
03:50 1009 29.8 838 24.75 -0.2 31.7 88 -2 28.4
03:55 1009 29.8 838 24.75 -0.2 31.6 88 -2 28.4
04:00 1009 29.8 838 24.75 -0.3 31.4 90 -1.7 28.9
04:05 1009 29.8 838 24.75 -0.4 31.3 90 -1.8 28.8
04:10 1009 29.8 838 24.75 -0.6 31 90 -2 28.3
04:15 1009 29.8 838 24.75 -0.6 31 90 -2 28.4
04:20 1009 29.8 839 24.78 -0.6 30.8 91 -1.9 28.6
04:25 1009 29.8 839 24.78 -0.7 30.8 93 -1.7 28.9
04:30 1010 29.83 839 24.78 -0.7 30.7 93 -1.7 29
04:35 1010 29.83 839 24.78 -0.8 30.6 93 -1.8 28.8
04:40 1010 29.83 839 24.78 -0.8 30.6 94 -1.7 29
04:45 1010 29.83 839 24.78 -0.8 30.6 94 -1.6 29.1
04:50 1010 29.83 839 24.78 -0.9 30.4 94 -1.7 29
04:55 1010 29.83 839 24.78 -0.8 30.6 95 -1.6 29.2
05:00 1010 29.83 839 24.78 -0.8 30.5 95 -1.6 29.1
05:05 1010 29.83 839 24.78 -1 30.3 94 -1.9 28.7
05:10 1010 29.83 839 24.78 -1.1 30.1 93 -2 28.3
05:15 1010 29.83 839 24.78 -1 30.1 90 -2.5 27.5
05:20 1010 29.83 839 24.78 -1 30.2 89 -2.5 27.5
05:25 1010 29.83 839 24.78 -0.9 30.4 87 -2.8 27
05:30 1010 29.83 839 24.78 -0.8 30.6 87 -2.7 27.2
05:35 1010 29.83 839 24.78 -0.7 30.7 88 -2.4 27.7
05:40 1010 29.83 840 24.81 -0.8 30.5 91 -2.2 28.1
05:45 1010 29.83 840 24.81 -0.9 30.3 92 -2.1 28.2
05:50 1010 29.83 840 24.81 -1 30.2 92 -2.2 28.1
05:55 1010 29.83 840 24.81 -1 30.2 91 -2.2 28
06:00 1011 29.85 840 24.81 -1 30.1 91 -2.3 27.8
06:05 1011 29.85 840 24.81 -1 30.2 90 -2.4 27.7
06:10 1011 29.85 840 24.81 -0.9 30.3 89 -2.5 27.4
06:15 1011 29.85 840 24.81 -0.9 30.3 87 -2.8 26.9
06:20 1011 29.85 840 24.81 -0.8 30.5 85 -3.1 26.4
06:25 1011 29.85 840 24.81 -0.6 30.9 82 -3.3 26.1
06:30 1011 29.85 840 24.81 -0.6 31 82 -3.3 26
06:35 1011 29.85 840 24.81 -0.6 31 83 -3.1 26.3
06:40 1011 29.85 840 24.81 -0.6 31 82 -3.2 26.2
06:45 1011 29.85 840 24.81 -0.4 31.4 78 -3.8 25.2
06:50 1011 29.85 840 24.81 -0.1 31.9 75 -3.9 24.9
06:55 1011 29.85 840 24.81 0.2 32.3 75 -3.7 25.3
07:00 1011 29.85 840 24.81 0.2 32.4 73 -4 24.8
07:05 1011 29.85 840 24.81 0.5 32.9 69 -4.6 23.7
07:10 1011 29.85 840 24.81 0.8 33.4 68 -4.5 23.8
07:15 1011 29.85 840 24.81 0.8 33.5 68 -4.4 24.1
07:20 1011 29.85 840 24.81 1 33.8 67 -4.5 24
07:25 1011 29.85 841 24.83 1.2 34.2 68 -4.1 24.6
07:30 1011 29.85 840 24.81 1.1 34.1 67 -4.2 24.4
07:35 1011 29.85 841 24.83 1.2 34.2 68 -4 24.8
07:40 1011 29.85 841 24.83 1.4 34.6 68 -3.9 25
07:45 1011 29.85 840 24.81 1.5 34.8 67 -3.8 25.1
07:50 1011 29.85 840 24.81 1.9 35.4 66 -3.7 25.3
07:55 1011 29.85 840 24.81 1.7 35.1 68 -3.5 25.6
08:00 1011 29.85 841 24.83 2.1 35.8 67 -3.3 26
08:05 1011 29.85 841 24.83 2.4 36.4 62 -4.1 24.5
08:10 1011 29.85 840 24.81 2.3 36.1 64 -3.9 25
08:15 1011 29.85 840 24.81 2.6 36.7 62 -4 24.8
08:20 1011 29.85 841 24.83 2.7 36.9 63 -3.7 25.4
08:25 1011 29.85 841 24.83 2.9 37.2 62 -3.7 25.4
08:30 1011 29.85 841 24.83 3.2 37.7 62 -3.5 25.8
08:35 1011 29.85 841 24.83 3.1 37.5 62 -3.6 25.6
08:40 1011 29.85 841 24.83 3 37.5 62 -3.6 25.6
08:45 1011 29.85 841 24.83 3.3 37.9 59 -4 24.7
08:50 1011 29.85 841 24.83 3.5 38.3 59 -3.8 25.1
08:55 1011 29.85 841 24.83 3.9 39 57 -3.9 25
09:00 1011 29.85 841 24.83 3.5 38.2 59 -3.7 25.3
09:05 1011 29.85 841 24.83 3.7 38.7 53 -5.1 22.8
09:10 1011 29.85 841 24.83 4 39.2 44 -7.3 18.9
09:15 1011 29.85 841 24.83 3.5 38.3 48 -6.5 20.4
09:20 1011 29.85 841 24.83 3.3 38 48 -6.6 20.1
09:25 1011 29.85 841 24.83 3.2 37.7 51 -6 21.3
09:30 1011 29.85 841 24.83 3.3 37.9 48 -6.7 19.9
09:35 1011 29.85 841 24.83 3.5 38.4 48 -6.5 20.3
09:40 1011 29.85 841 24.83 3.7 38.7 45 -7.2 19.1
09:45 1011 29.85 841 24.83 3.7 38.6 43 -7.9 17.8
09:50 1011 29.85 841 24.83 4 39.2 47 -6.4 20.5
09:55 1011 29.85 841 24.83 3.9 39.1 45 -6.9 19.5
10:00 1011 29.85 841 24.83 3.8 38.8 45 -7.1 19.3
10:05 1011 29.85 841 24.83 3.6 38.4 45 -7.3 18.8
10:10 1012 29.88 841 24.83 3.5 38.3 45 -7.4 18.7
10:15 1012 29.88 841 24.83 3.6 38.4 42 -8.1 17.4
10:20 1012 29.88 841 24.83 3.5 38.4 42 -8.2 17.2
10:25 1012 29.88 841 24.83 3.7 38.7 44 -7.3 18.9
10:30 1012 29.88 841 24.83 3.9 39.1 42 -7.9 17.8
10:35 1012 29.88 841 24.83 3.8 38.9 41 -8.2 17.3
10:40 1012 29.88 841 24.83 3.9 39.1 38 -9.1 15.7
10:45 1012 29.88 841 24.83 4 39.3 41 -7.9 17.7
10:50 1012 29.88 841 24.83 4.7 40.4 39 -8.1 17.4
10:55 1012 29.88 841 24.83 5.4 41.7 41 -6.8 19.7
11:00 1012 29.88 841 24.83 5.2 41.3 40 -7.2 19
11:05 1012 29.88 841 24.83 4.7 40.5 39 -8.1 17.4
11:10 1012 29.88 841 24.83 4.5 40 38 -8.7 16.4
11:15 1012 29.88 841 24.83 4.8 40.6 38 -8.5 16.7
11:20 1012 29.88 841 24.83 4.6 40.3 39 -8 17.5
11:25 1012 29.88 841 24.83 4.8 40.7 38 -8.2 17.3
11:30 1012 29.88 841 24.83 5 40.9 36 -9 15.8
11:35 1012 29.88 841 24.83 5.1 41.2 34 -9.6 14.8
11:40 1012 29.88 841 24.83 5.4 41.8 34 -9.1 15.7
11:45 1012 29.88 841 24.83 5.1 41.1 36 -8.7 16.3
11:50 1012 29.88 841 24.83 5 41 34 -9.7 14.5
11:55 1012 29.88 841 24.83 4.9 40.8 32 -10.3 13.4
12:00 1012 29.88 841 24.83 5.1 41.1 36 -8.8 16.1
12:05 1012 29.88 841 24.83 5.3 41.6 35 -9 15.8
12:10 1012 29.88 841 24.83 5.2 41.3 38 -8.2 17.3
12:15 1012 29.88 841 24.83 5.4 41.7 35 -8.7 16.3
12:20 1011 29.85 841 24.83 5.6 42 37 -7.9 17.8
12:25 1011 29.85 841 24.83 5.9 42.6 34 -8.7 16.4
12:30 1011 29.85 841 24.83 5.7 42.3 36 -8 17.5
12:35 1011 29.85 841 24.83 5.5 42 35 -8.7 16.3
12:40 1011 29.85 841 24.83 5.7 42.3 37 -7.7 18.2
12:45 1012 29.88 841 24.83 6.3 43.4 33 -8.6 16.5
12:50 1011 29.85 841 24.83 6.1 43 35 -8.2 17.2
12:55 1012 29.88 841 24.83 6 42.9 32 -9.4 15.1
13:00 1012 29.88 841 24.83 5.7 42.2 33 -9.3 15.3
13:05 1012 29.88 841 24.83 5.7 42.3 31 -10.2 13.6
13:10 1012 29.88 841 24.83 5.7 42.2 33 -9.4 15.1
13:15 1012 29.88 841 24.83 5.8 42.5 32 -9.7 14.5
13:20 1012 29.88 841 24.83 6.3 43.3 30 -9.9 14.1
13:25 1012 29.88 841 24.83 6.7 44 31 -9.2 15.5
13:30 1012 29.88 841 24.83 6.6 43.8 31 -9.2 15.4
13:35 1012 29.88 841 24.83 6.4 43.5 31 -9.5 15
13:40 1012 29.88 841 24.83 6.2 43.1 31 -9.6 14.8
13:45 1012 29.88 841 24.83 6.5 43.8 33 -8.7 16.3
13:50 1012 29.88 841 24.83 6.7 44.1 31 -9.1 15.6
13:55 1012 29.88 841 24.83 7 44.6 31 -9.1 15.6
14:00 1012 29.88 841 24.83 6.8 44.3 32 -8.6 16.6
14:05 1012 29.88 841 24.83 6.3 43.3 33 -8.7 16.3
14:10 1012 29.88 841 24.83 6.2 43.1 34 -8.7 16.3
14:15 1012 29.88 841 24.83 6.6 43.8 32 -9 15.8
14:20 1012 29.88 841 24.83 7 44.6 32 -8.6 16.5
14:25 1012 29.88 841 24.83 6.8 44.2 33 -8.5 16.6
14:30 1012 29.88 841 24.83 6.9 44.4 34 -7.8 17.9
14:35 1012 29.88 841 24.83 7.3 45.2 32 -8.2 17.2
14:40 1012 29.88 841 24.83 6.8 44.2 31 -9.4 15.1
14:45 1012 29.88 841 24.83 6.3 43.3 32 -9.1 15.6
14:50 1012 29.88 841 24.83 6.3 43.3 32 -9.3 15.3
14:55 1012 29.88 841 24.83 6.2 43.1 33 -9 15.8
15:00 1012 29.88 841 24.83 6.3 43.3 32 -9.2 15.5
15:05 1012 29.88 841 24.83 6.3 43.4 34 -8.3 17
15:10 1012 29.88 841 24.83 6.7 44.1 33 -8.5 16.7
15:15 1012 29.88 841 24.83 6.5 43.6 38 -7 19.5
15:20 1012 29.88 841 24.83 6 42.9 37 -7.4 18.7
15:25 1012 29.88 841 24.83 5.4 41.7 39 -7.5 18.5
15:30 1012 29.88 841 24.83 5 41 45 -6.1 21
15:35 1012 29.88 841 24.83 4.6 40.3 48 -5.5 22.1
15:40 1012 29.88 841 24.83 4.5 40.2 49 -5.4 22.3
15:45 1012 29.88 841 24.83 4.4 40 51 -4.9 23.1
15:50 1012 29.88 841 24.83 4.4 39.9 50 -5.2 22.6
15:55 1012 29.88 841 24.83 4.8 40.6 48 -5.3 22.4
16:00 1012 29.88 841 24.83 5.4 41.7 43 -6.2 20.9
16:05 1012 29.88 841 24.83 5 40.9 45 -6.1 21.1
16:10 1012 29.88 841 24.83 4.8 40.6 45 -6.1 21.1
16:15 1012 29.88 841 24.83 5.1 41.1 41 -7.1 19.3
16:20 1012 29.88 841 24.83 5.2 41.4 42 -6.8 19.8
16:25 1012 29.88 841 24.83 5.5 42 40 -7.2 19.1
16:30 1012 29.88 841 24.83 5.5 41.8 40 -7.1 19.2
16:35 1012 29.88 841 24.83 5.3 41.5 40 -7.2 19
16:40 1012 29.88 841 24.83 5.2 41.3 41 -7.1 19.2
16:45 1012 29.88 841 24.83 5.3 41.5 42 -6.6 20.1
16:50 1012 29.88 841 24.83 5.5 42 40 -6.9 19.6
16:55 1012 29.88 841 24.83 5.6 42 41 -6.6 20.1
17:00 1012 29.88 841 24.83 5.6 42 41 -6.7 20
17:05 1012 29.88 841 24.83 5.8 42.4 42 -6.1 20.9
17:10 1012 29.88 841 24.83 5.6 42.1 44 -5.6 22
17:15 1012 29.88 841 24.83 5.2 41.4 52 -3.9 24.9
17:20 1012 29.88 842 24.86 4.8 40.7 52 -4.2 24.5
17:25 1012 29.88 842 24.86 4.7 40.4 53 -4.2 24.5
17:30 1012 29.88 842 24.86 4.5 40.2 56 -3.6 25.6
17:35 1012 29.88 842 24.86 4.5 40.2 53 -4.2 24.5
17:40 1012 29.88 842 24.86 4.4 39.9 55 -4 24.9
17:45 1012 29.88 842 24.86 4.6 40.3 52 -4.4 24
17:50 1012 29.88 842 24.86 4.6 40.3 53 -4.1 24.5
17:55 1012 29.88 842 24.86 4.8 40.7 48 -5.3 22.5
18:00 1012 29.88 842 24.86 5 41 48 -5.1 22.9
18:05 1012 29.88 842 24.86 5 41 47 -5.4 22.4
18:10 1012 29.88 842 24.86 5 41 47 -5.5 22.1
18:15 1012 29.88 842 24.86 4.9 40.9 47 -5.6 22
18:20 1012 29.88 842 24.86 4.9 40.9 47 -5.5 22.1
18:25 1012 29.88 842 24.86 5 40.9 46 -5.6 22
18:30 1012 29.88 842 24.86 4.9 40.8 47 -5.6 22
18:35 1012 29.88 842 24.86 4.8 40.7 47 -5.5 22.1
18:40 1012 29.88 842 24.86 4.8 40.7 46 -5.8 21.6
18:45 1012 29.88 842 24.86 4.9 40.9 45 -6 21.3
18:50 1012 29.88 842 24.86 4.9 40.8 46 -5.8 21.5
18:55 1012 29.88 842 24.86 5 40.9 46 -5.6 21.8
19:00 1012 29.88 842 24.86 5 40.9 47 -5.5 22.1
19:05 1012 29.88 842 24.86 4.9 40.9 47 -5.5 22.1
19:10 1012 29.88 842 24.86 4.9 40.8 47 -5.5 22
19:15 1013 29.91 842 24.86 4.9 40.8 46 -5.6 21.9
19:20 1013 29.91 842 24.86 4.9 40.8 47 -5.6 21.9
19:25 1013 29.91 842 24.86 4.8 40.7 47 -5.7 21.8
19:30 1013 29.91 842 24.86 4.8 40.7 46 -5.8 21.5
19:35 1013 29.91 842 24.86 4.7 40.5 48 -5.3 22.5
19:40 1013 29.91 842 24.86 4.4 40 51 -4.9 23.2
19:45 1013 29.91 842 24.86 4.1 39.4 53 -4.5 23.8
19:50 1013 29.91 842 24.86 4 39.3 54 -4.4 24.1
19:55 1013 29.91 842 24.86 4 39.1 55 -4.2 24.5
20:00 1013 29.91 842 24.86 3.8 38.9 56 -4.1 24.6
20:05 1013 29.91 842 24.86 3.8 38.9 56 -4.1 24.6
20:10 1013 29.91 842 24.86 3.8 38.9 57 -3.9 25
20:15 1013 29.91 842 24.86 3.7 38.7 57 -3.9 25
20:20 1013 29.91 842 24.86 3.7 38.6 58 -3.9 25
20:25 1013 29.91 842 24.86 3.7 38.6 57 -4.1 24.6
20:30 1013 29.91 842 24.86 3.7 38.7 56 -4.2 24.4
20:35 1013 29.91 842 24.86 3.8 38.8 56 -4.2 24.4
20:40 1013 29.91 843 24.89 3.7 38.7 56 -4.1 24.5
20:45 1013 29.91 843 24.89 3.7 38.6 56 -4.3 24.2
20:50 1013 29.91 843 24.89 3.7 38.7 53 -5 23.1
20:55 1013 29.91 843 24.89 3.9 39 52 -5.2 22.7
21:00 1013 29.91 843 24.89 3.9 39 51 -5.3 22.5
21:05 1013 29.91 843 24.89 3.9 39 52 -5.1 22.9
21:10 1013 29.91 842 24.86 3.8 38.8 53 -4.8 23.4
21:15 1013 29.91 842 24.86 3.5 38.3 54 -4.8 23.3
21:20 1013 29.91 842 24.86 3.2 37.8 57 -4.5 23.9
21:25 1013 29.91 842 24.86 3.1 37.6 58 -4.4 24.1
21:30 1013 29.91 842 24.86 3 37.4 57 -4.7 23.6
21:35 1013 29.91 842 24.86 3 37.4 56 -5 23.1
21:40 1013 29.91 842 24.86 3.2 37.7 54 -5.1 22.8
21:45 1013 29.91 842 24.86 3.2 37.8 54 -5.2 22.7
21:50 1013 29.91 842 24.86 3.2 37.8 55 -5 23
21:55 1013 29.91 842 24.86 3.3 37.9 55 -4.9 23.1
22:00 1013 29.91 842 24.86 3.3 38 55 -4.9 23.2
22:05 1013 29.91 842 24.86 3.3 38 55 -4.9 23.3
22:10 1013 29.91 842 24.86 3.3 38 54 -5.1 22.8
22:15 1013 29.91 842 24.86 3.4 38.2 53 -5.2 22.6
22:20 1013 29.91 842 24.86 3.5 38.4 52 -5.3 22.5
22:25 1013 29.91 842 24.86 3.7 38.7 52 -5.3 22.4
22:30 1013 29.91 842 24.86 3.8 38.9 52 -5.2 22.6
22:35 1013 29.91 842 24.86 3.8 38.9 53 -5 23.1
22:40 1013 29.91 842 24.86 3.7 38.7 51 -5.6 22
22:45 1013 29.91 842 24.86 3.9 39.1 46 -6.7 20
22:50 1013 29.91 842 24.86 4.4 39.9 44 -6.8 19.8
22:55 1013 29.91 842 24.86 4.5 40.1 45 -6.5 20.3
23:00 1013 29.91 842 24.86 4.5 40.1 44 -6.8 19.7
23:05 1013 29.91 842 24.86 4.7 40.4 42 -7.1 19.3
23:10 1013 29.91 842 24.86 4.8 40.6 43 -6.9 19.7
23:15 1013 29.91 842 24.86 4.8 40.6 42 -7 19.4
23:20 1013 29.91 842 24.86 4.8 40.6 42 -7 19.4
23:25 1013 29.91 842 24.86 4.9 40.7 41 -7.3 18.9
23:30 1013 29.91 842 24.86 4.9 40.8 41 -7.2 19.1
23:35 1013 29.91 842 24.86 4.9 40.8 41 -7.2 19
23:40 1013 29.91 842 24.86 4.9 40.8 41 -7.2 19
23:45 1013 29.91 842 24.86 5 41 40 -7.4 18.7
23:50 1013 29.91 842 24.86 5.1 41.1 39 -7.8 17.9
23:55 1013 29.91 842 24.86 5.1 41.1 39 -7.8 18
24:00 1013 29.91 842 24.86 5 41.1 40 -7.5 18.4